sensor_id;sensor_type;location;lat;lon;timestamp;P1;durP1;ratioP1;P2;durP2;ratioP2
84033;SDS011;74115;55.806;37.754;2024-02-26T00:01:40;6.10;;;2.13;;
84033;SDS011;74115;55.806;37.754;2024-02-26T00:04:09;3.97;;;1.65;;
84033;SDS011;74115;55.806;37.754;2024-02-26T00:06:35;7.35;;;2.20;;
84033;SDS011;74115;55.806;37.754;2024-02-26T00:09:00;4.65;;;1.90;;
84033;SDS011;74115;55.806;37.754;2024-02-26T00:11:28;5.30;;;1.85;;
84033;SDS011;74115;55.806;37.754;2024-02-26T00:13:53;3.60;;;1.60;;
84033;SDS011;74115;55.806;37.754;2024-02-26T00:16:19;2.47;;;1.60;;
84033;SDS011;74115;55.806;37.754;2024-02-26T00:18:45;4.65;;;1.52;;
84033;SDS011;74115;55.806;37.754;2024-02-26T00:21:11;3.20;;;1.40;;
84033;SDS011;74115;55.806;37.754;2024-02-26T00:23:37;4.20;;;2.58;;
84033;SDS011;74115;55.806;37.754;2024-02-26T00:26:02;5.05;;;1.90;;
84033;SDS011;74115;55.806;37.754;2024-02-26T00:28:29;6.15;;;2.00;;
84033;SDS011;74115;55.806;37.754;2024-02-26T00:30:54;3.15;;;1.67;;
84033;SDS011;74115;55.806;37.754;2024-02-26T00:33:21;1.92;;;1.35;;
84033;SDS011;74115;55.806;37.754;2024-02-26T00:35:48;3.53;;;1.85;;
84033;SDS011;74115;55.806;37.754;2024-02-26T00:38:14;4.65;;;2.65;;
84033;SDS011;74115;55.806;37.754;2024-02-26T00:40:40;3.22;;;2.10;;
84033;SDS011;74115;55.806;37.754;2024-02-26T00:43:08;3.78;;;1.83;;
84033;SDS011;74115;55.806;37.754;2024-02-26T00:45:34;4.75;;;2.03;;
84033;SDS011;74115;55.806;37.754;2024-02-26T00:48:00;2.63;;;1.60;;
84033;SDS011;74115;55.806;37.754;2024-02-26T00:50:31;4.30;;;2.08;;
84033;SDS011;74115;55.806;37.754;2024-02-26T00:52:57;3.92;;;1.45;;
84033;SDS011;74115;55.806;37.754;2024-02-26T00:55:22;4.20;;;2.08;;
84033;SDS011;74115;55.806;37.754;2024-02-26T00:57:48;2.45;;;1.33;;
84033;SDS011;74115;55.806;37.754;2024-02-26T01:00:14;5.30;;;1.73;;
84033;SDS011;74115;55.806;37.754;2024-02-26T01:02:40;3.55;;;1.52;;
84033;SDS011;74115;55.806;37.754;2024-02-26T01:05:07;3.35;;;1.35;;
84033;SDS011;74115;55.806;37.754;2024-02-26T01:07:36;3.15;;;1.60;;
84033;SDS011;74115;55.806;37.754;2024-02-26T01:10:02;5.75;;;1.60;;
84033;SDS011;74115;55.806;37.754;2024-02-26T01:12:29;3.85;;;1.65;;
84033;SDS011;74115;55.806;37.754;2024-02-26T01:14:55;3.13;;;1.25;;
84033;SDS011;74115;55.806;37.754;2024-02-26T01:17:20;3.55;;;1.30;;
84033;SDS011;74115;55.806;37.754;2024-02-26T01:19:46;3.75;;;1.20;;
84033;SDS011;74115;55.806;37.754;2024-02-26T01:22:12;1.60;;;1.40;;
84033;SDS011;74115;55.806;37.754;2024-02-26T01:24:38;2.65;;;1.10;;
84033;SDS011;74115;55.806;37.754;2024-02-26T01:27:03;6.28;;;1.83;;
84033;SDS011;74115;55.806;37.754;2024-02-26T01:29:29;3.70;;;2.35;;
84033;SDS011;74115;55.806;37.754;2024-02-26T01:31:57;4.57;;;1.75;;
84033;SDS011;74115;55.806;37.754;2024-02-26T01:34:22;2.35;;;1.45;;
84033;SDS011;74115;55.806;37.754;2024-02-26T01:36:48;3.80;;;1.48;;
84033;SDS011;74115;55.806;37.754;2024-02-26T01:39:14;4.53;;;2.10;;
84033;SDS011;74115;55.806;37.754;2024-02-26T01:41:40;4.32;;;1.90;;
84033;SDS011;74115;55.806;37.754;2024-02-26T01:44:06;6.20;;;1.05;;
84033;SDS011;74115;55.806;37.754;2024-02-26T01:46:32;4.88;;;1.25;;
84033;SDS011;74115;55.806;37.754;2024-02-26T01:48:59;6.60;;;2.58;;
84033;SDS011;74115;55.806;37.754;2024-02-26T01:51:26;2.35;;;1.00;;
84033;SDS011;74115;55.806;37.754;2024-02-26T01:53:52;4.00;;;1.88;;
84033;SDS011;74115;55.806;37.754;2024-02-26T01:56:18;1.55;;;1.08;;
84033;SDS011;74115;55.806;37.754;2024-02-26T01:58:45;0.77;;;0.70;;
84033;SDS011;74115;55.806;37.754;2024-02-26T02:01:11;7.50;;;1.85;;
84033;SDS011;74115;55.806;37.754;2024-02-26T02:03:37;3.65;;;1.33;;
84033;SDS011;74115;55.806;37.754;2024-02-26T02:06:03;5.30;;;1.40;;
84033;SDS011;74115;55.806;37.754;2024-02-26T02:08:29;3.70;;;1.38;;
84033;SDS011;74115;55.806;37.754;2024-02-26T02:10:55;5.68;;;1.73;;
84033;SDS011;74115;55.806;37.754;2024-02-26T02:13:22;2.42;;;1.25;;
84033;SDS011;74115;55.806;37.754;2024-02-26T02:15:47;4.53;;;1.40;;
84033;SDS011;74115;55.806;37.754;2024-02-26T02:18:13;3.17;;;2.10;;
84033;SDS011;74115;55.806;37.754;2024-02-26T02:20:39;4.68;;;1.42;;
84033;SDS011;74115;55.806;37.754;2024-02-26T02:23:05;3.67;;;1.75;;
84033;SDS011;74115;55.806;37.754;2024-02-26T02:25:30;2.15;;;1.92;;
84033;SDS011;74115;55.806;37.754;2024-02-26T02:27:56;3.33;;;2.05;;
84033;SDS011;74115;55.806;37.754;2024-02-26T02:30:23;4.80;;;1.77;;
84033;SDS011;74115;55.806;37.754;2024-02-26T02:35:16;5.78;;;1.02;;
84033;SDS011;74115;55.806;37.754;2024-02-26T02:37:41;2.78;;;1.38;;
84033;SDS011;74115;55.806;37.754;2024-02-26T02:40:07;4.70;;;1.00;;
84033;SDS011;74115;55.806;37.754;2024-02-26T02:42:33;1.77;;;1.02;;
84033;SDS011;74115;55.806;37.754;2024-02-26T02:44:59;4.03;;;2.25;;
84033;SDS011;74115;55.806;37.754;2024-02-26T02:47:25;4.22;;;1.65;;
84033;SDS011;74115;55.806;37.754;2024-02-26T02:49:50;2.90;;;1.27;;
84033;SDS011;74115;55.806;37.754;2024-02-26T02:52:16;1.88;;;1.15;;
84033;SDS011;74115;55.806;37.754;2024-02-26T02:54:42;2.63;;;1.20;;
84033;SDS011;74115;55.806;37.754;2024-02-26T02:57:08;4.88;;;1.70;;
84033;SDS011;74115;55.806;37.754;2024-02-26T02:59:34;3.63;;;1.25;;
84033;SDS011;74115;55.806;37.754;2024-02-26T03:02:01;3.78;;;1.42;;
84033;SDS011;74115;55.806;37.754;2024-02-26T03:04:26;2.70;;;0.98;;
84033;SDS011;74115;55.806;37.754;2024-02-26T03:06:52;2.60;;;1.50;;
84033;SDS011;74115;55.806;37.754;2024-02-26T03:09:18;5.55;;;1.60;;
84033;SDS011;74115;55.806;37.754;2024-02-26T03:11:43;2.58;;;1.33;;
84033;SDS011;74115;55.806;37.754;2024-02-26T03:14:09;2.22;;;1.20;;
84033;SDS011;74115;55.806;37.754;2024-02-26T03:16:35;2.72;;;1.23;;
84033;SDS011;74115;55.806;37.754;2024-02-26T03:19:00;1.67;;;0.88;;
84033;SDS011;74115;55.806;37.754;2024-02-26T03:21:26;4.47;;;1.42;;
84033;SDS011;74115;55.806;37.754;2024-02-26T03:23:52;2.80;;;1.55;;
84033;SDS011;74115;55.806;37.754;2024-02-26T03:26:18;3.15;;;0.98;;
84033;SDS011;74115;55.806;37.754;2024-02-26T03:28:44;6.35;;;1.80;;
84033;SDS011;74115;55.806;37.754;2024-02-26T03:31:10;3.80;;;1.95;;
84033;SDS011;74115;55.806;37.754;2024-02-26T03:33:36;1.67;;;1.08;;
84033;SDS011;74115;55.806;37.754;2024-02-26T03:36:02;3.63;;;1.50;;
84033;SDS011;74115;55.806;37.754;2024-02-26T03:38:28;2.65;;;1.10;;
84033;SDS011;74115;55.806;37.754;2024-02-26T03:40:54;4.57;;;1.30;;
84033;SDS011;74115;55.806;37.754;2024-02-26T03:43:20;4.60;;;1.50;;
84033;SDS011;74115;55.806;37.754;2024-02-26T03:45:46;3.42;;;1.25;;
84033;SDS011;74115;55.806;37.754;2024-02-26T03:48:12;2.70;;;1.27;;
84033;SDS011;74115;55.806;37.754;2024-02-26T03:50:37;3.38;;;1.65;;
84033;SDS011;74115;55.806;37.754;2024-02-26T03:53:03;3.40;;;1.40;;
84033;SDS011;74115;55.806;37.754;2024-02-26T03:55:29;2.05;;;1.13;;
84033;SDS011;74115;55.806;37.754;2024-02-26T03:57:55;3.03;;;1.23;;
84033;SDS011;74115;55.806;37.754;2024-02-26T04:00:20;1.40;;;0.88;;
84033;SDS011;74115;55.806;37.754;2024-02-26T04:02:46;5.85;;;2.15;;
84033;SDS011;74115;55.806;37.754;2024-02-26T04:05:13;3.72;;;1.15;;
84033;SDS011;74115;55.806;37.754;2024-02-26T04:07:39;2.85;;;1.45;;
84033;SDS011;74115;55.806;37.754;2024-02-26T04:10:09;3.83;;;1.20;;
84033;SDS011;74115;55.806;37.754;2024-02-26T04:12:36;2.60;;;1.15;;
84033;SDS011;74115;55.806;37.754;2024-02-26T04:15:04;1.75;;;0.88;;
84033;SDS011;74115;55.806;37.754;2024-02-26T04:17:30;3.58;;;1.33;;
84033;SDS011;74115;55.806;37.754;2024-02-26T04:19:56;4.63;;;1.08;;
84033;SDS011;74115;55.806;37.754;2024-02-26T04:22:22;2.28;;;1.20;;
84033;SDS011;74115;55.806;37.754;2024-02-26T04:24:48;2.70;;;1.27;;
84033;SDS011;74115;55.806;37.754;2024-02-26T04:27:13;2.88;;;1.02;;
84033;SDS011;74115;55.806;37.754;2024-02-26T04:29:39;6.05;;;1.15;;
84033;SDS011;74115;55.806;37.754;2024-02-26T04:32:05;3.30;;;1.20;;
84033;SDS011;74115;55.806;37.754;2024-02-26T04:34:31;5.63;;;1.92;;
84033;SDS011;74115;55.806;37.754;2024-02-26T04:36:56;3.05;;;1.48;;
84033;SDS011;74115;55.806;37.754;2024-02-26T04:39:22;1.58;;;0.85;;
84033;SDS011;74115;55.806;37.754;2024-02-26T04:41:47;1.95;;;1.27;;
84033;SDS011;74115;55.806;37.754;2024-02-26T04:44:13;2.33;;;1.65;;
84033;SDS011;74115;55.806;37.754;2024-02-26T04:46:39;3.95;;;1.38;;
84033;SDS011;74115;55.806;37.754;2024-02-26T04:49:04;2.28;;;1.27;;
84033;SDS011;74115;55.806;37.754;2024-02-26T04:51:31;2.85;;;1.35;;
84033;SDS011;74115;55.806;37.754;2024-02-26T04:53:56;4.30;;;1.48;;
84033;SDS011;74115;55.806;37.754;2024-02-26T04:56:22;2.47;;;1.40;;
84033;SDS011;74115;55.806;37.754;2024-02-26T04:58:48;2.25;;;1.35;;
84033;SDS011;74115;55.806;37.754;2024-02-26T05:01:15;3.70;;;1.83;;
84033;SDS011;74115;55.806;37.754;2024-02-26T05:03:42;2.33;;;1.42;;
84033;SDS011;74115;55.806;37.754;2024-02-26T05:06:10;3.10;;;1.77;;
84033;SDS011;74115;55.806;37.754;2024-02-26T05:08:36;4.65;;;1.60;;
84033;SDS011;74115;55.806;37.754;2024-02-26T05:11:03;2.03;;;1.35;;
84033;SDS011;74115;55.806;37.754;2024-02-26T05:13:29;3.30;;;1.60;;
84033;SDS011;74115;55.806;37.754;2024-02-26T05:15:55;2.55;;;0.90;;
84033;SDS011;74115;55.806;37.754;2024-02-26T05:18:21;3.40;;;2.00;;
84033;SDS011;74115;55.806;37.754;2024-02-26T05:20:47;4.28;;;1.17;;
84033;SDS011;74115;55.806;37.754;2024-02-26T05:23:13;4.32;;;1.80;;
84033;SDS011;74115;55.806;37.754;2024-02-26T05:25:39;2.25;;;1.10;;
84033;SDS011;74115;55.806;37.754;2024-02-26T05:28:06;5.35;;;1.80;;
84033;SDS011;74115;55.806;37.754;2024-02-26T05:30:32;3.47;;;1.85;;
84033;SDS011;74115;55.806;37.754;2024-02-26T05:32:58;4.22;;;1.30;;
84033;SDS011;74115;55.806;37.754;2024-02-26T05:35:24;6.10;;;1.80;;
84033;SDS011;74115;55.806;37.754;2024-02-26T05:37:51;4.18;;;1.42;;
84033;SDS011;74115;55.806;37.754;2024-02-26T05:40:17;4.07;;;1.88;;
84033;SDS011;74115;55.806;37.754;2024-02-26T05:42:43;3.42;;;1.90;;
84033;SDS011;74115;55.806;37.754;2024-02-26T05:47:37;2.63;;;1.17;;
84033;SDS011;74115;55.806;37.754;2024-02-26T05:50:08;3.10;;;1.38;;
84033;SDS011;74115;55.806;37.754;2024-02-26T05:52:38;2.55;;;1.85;;
84033;SDS011;74115;55.806;37.754;2024-02-26T05:55:04;3.30;;;1.85;;
84033;SDS011;74115;55.806;37.754;2024-02-26T05:57:31;7.07;;;2.17;;
84033;SDS011;74115;55.806;37.754;2024-02-26T05:59:57;5.47;;;2.47;;
84033;SDS011;74115;55.806;37.754;2024-02-26T06:02:26;4.32;;;2.15;;
84033;SDS011;74115;55.806;37.754;2024-02-26T06:04:51;4.85;;;1.80;;
84033;SDS011;74115;55.806;37.754;2024-02-26T06:07:17;7.43;;;2.10;;
84033;SDS011;74115;55.806;37.754;2024-02-26T06:09:43;3.72;;;2.05;;
84033;SDS011;74115;55.806;37.754;2024-02-26T06:12:08;6.00;;;1.77;;
84033;SDS011;74115;55.806;37.754;2024-02-26T06:14:34;4.45;;;2.40;;
84033;SDS011;74115;55.806;37.754;2024-02-26T06:17:00;5.82;;;1.92;;
84033;SDS011;74115;55.806;37.754;2024-02-26T06:19:25;9.40;;;2.20;;
84033;SDS011;74115;55.806;37.754;2024-02-26T06:21:51;3.40;;;1.13;;
84033;SDS011;74115;55.806;37.754;2024-02-26T06:24:17;4.28;;;1.88;;
84033;SDS011;74115;55.806;37.754;2024-02-26T06:26:42;3.67;;;2.20;;
84033;SDS011;74115;55.806;37.754;2024-02-26T06:29:08;3.92;;;1.40;;
84033;SDS011;74115;55.806;37.754;2024-02-26T06:31:34;5.43;;;2.25;;
84033;SDS011;74115;55.806;37.754;2024-02-26T06:33:59;3.03;;;1.63;;
84033;SDS011;74115;55.806;37.754;2024-02-26T06:36:25;4.57;;;2.08;;
84033;SDS011;74115;55.806;37.754;2024-02-26T06:38:51;7.68;;;2.22;;
84033;SDS011;74115;55.806;37.754;2024-02-26T06:41:19;4.55;;;2.35;;
84033;SDS011;74115;55.806;37.754;2024-02-26T06:43:45;6.60;;;2.60;;
84033;SDS011;74115;55.806;37.754;2024-02-26T06:46:11;3.67;;;2.17;;
84033;SDS011;74115;55.806;37.754;2024-02-26T06:48:36;6.15;;;2.17;;
84033;SDS011;74115;55.806;37.754;2024-02-26T06:51:02;6.38;;;1.63;;
84033;SDS011;74115;55.806;37.754;2024-02-26T06:53:28;3.30;;;1.35;;
84033;SDS011;74115;55.806;37.754;2024-02-26T06:55:54;4.80;;;1.73;;
84033;SDS011;74115;55.806;37.754;2024-02-26T06:58:19;4.13;;;1.33;;
84033;SDS011;74115;55.806;37.754;2024-02-26T07:00:45;2.72;;;1.67;;
84033;SDS011;74115;55.806;37.754;2024-02-26T07:03:11;5.00;;;2.83;;
84033;SDS011;74115;55.806;37.754;2024-02-26T07:05:39;4.97;;;2.40;;
84033;SDS011;74115;55.806;37.754;2024-02-26T07:08:04;4.93;;;2.15;;
84033;SDS011;74115;55.806;37.754;2024-02-26T07:10:31;3.03;;;1.70;;
84033;SDS011;74115;55.806;37.754;2024-02-26T07:12:56;5.32;;;2.05;;
84033;SDS011;74115;55.806;37.754;2024-02-26T07:15:22;4.25;;;2.10;;
84033;SDS011;74115;55.806;37.754;2024-02-26T07:17:48;3.65;;;1.25;;
84033;SDS011;74115;55.806;37.754;2024-02-26T07:20:14;3.20;;;2.00;;
84033;SDS011;74115;55.806;37.754;2024-02-26T07:22:40;4.45;;;2.00;;
84033;SDS011;74115;55.806;37.754;2024-02-26T07:25:07;6.60;;;2.25;;
84033;SDS011;74115;55.806;37.754;2024-02-26T07:27:34;2.85;;;1.52;;
84033;SDS011;74115;55.806;37.754;2024-02-26T07:29:59;5.47;;;2.17;;
84033;SDS011;74115;55.806;37.754;2024-02-26T07:32:25;7.55;;;3.05;;
84033;SDS011;74115;55.806;37.754;2024-02-26T07:34:51;5.03;;;1.63;;
84033;SDS011;74115;55.806;37.754;2024-02-26T07:37:17;7.50;;;2.05;;
84033;SDS011;74115;55.806;37.754;2024-02-26T07:39:43;4.22;;;2.28;;
84033;SDS011;74115;55.806;37.754;2024-02-26T07:42:08;4.85;;;2.70;;
84033;SDS011;74115;55.806;37.754;2024-02-26T07:44:34;3.15;;;1.50;;
84033;SDS011;74115;55.806;37.754;2024-02-26T07:47:00;4.70;;;2.55;;
84033;SDS011;74115;55.806;37.754;2024-02-26T07:49:26;7.88;;;2.55;;
84033;SDS011;74115;55.806;37.754;2024-02-26T07:51:52;3.80;;;1.92;;
84033;SDS011;74115;55.806;37.754;2024-02-26T07:54:18;3.60;;;2.10;;
84033;SDS011;74115;55.806;37.754;2024-02-26T07:56:44;3.83;;;2.53;;
84033;SDS011;74115;55.806;37.754;2024-02-26T07:59:10;5.38;;;2.33;;
84033;SDS011;74115;55.806;37.754;2024-02-26T08:01:36;4.38;;;2.10;;
84033;SDS011;74115;55.806;37.754;2024-02-26T08:04:04;5.85;;;2.85;;
84033;SDS011;74115;55.806;37.754;2024-02-26T08:06:30;5.43;;;1.73;;
84033;SDS011;74115;55.806;37.754;2024-02-26T08:08:56;6.60;;;2.08;;
84033;SDS011;74115;55.806;37.754;2024-02-26T08:11:21;2.35;;;1.67;;
84033;SDS011;74115;55.806;37.754;2024-02-26T08:13:47;8.05;;;2.72;;
84033;SDS011;74115;55.806;37.754;2024-02-26T08:16:13;6.85;;;2.70;;
84033;SDS011;74115;55.806;37.754;2024-02-26T08:18:39;6.88;;;3.10;;
84033;SDS011;74115;55.806;37.754;2024-02-26T08:21:05;6.70;;;2.55;;
84033;SDS011;74115;55.806;37.754;2024-02-26T08:23:30;4.40;;;2.38;;
84033;SDS011;74115;55.806;37.754;2024-02-26T08:25:57;4.53;;;2.22;;
84033;SDS011;74115;55.806;37.754;2024-02-26T08:28:22;5.15;;;2.28;;
84033;SDS011;74115;55.806;37.754;2024-02-26T08:30:48;5.60;;;2.40;;
84033;SDS011;74115;55.806;37.754;2024-02-26T08:33:14;5.55;;;2.75;;
84033;SDS011;74115;55.806;37.754;2024-02-26T08:35:40;6.13;;;2.58;;
84033;SDS011;74115;55.806;37.754;2024-02-26T08:38:06;7.20;;;2.88;;
84033;SDS011;74115;55.806;37.754;2024-02-26T08:40:32;4.68;;;2.53;;
84033;SDS011;74115;55.806;37.754;2024-02-26T08:42:58;6.72;;;3.00;;
84033;SDS011;74115;55.806;37.754;2024-02-26T08:45:23;4.18;;;2.17;;
84033;SDS011;74115;55.806;37.754;2024-02-26T08:47:49;8.70;;;2.63;;
84033;SDS011;74115;55.806;37.754;2024-02-26T08:50:15;10.57;;;2.72;;
84033;SDS011;74115;55.806;37.754;2024-02-26T08:52:41;6.72;;;2.65;;
84033;SDS011;74115;55.806;37.754;2024-02-26T08:55:07;5.65;;;2.03;;
84033;SDS011;74115;55.806;37.754;2024-02-26T08:57:34;5.93;;;2.55;;
84033;SDS011;74115;55.806;37.754;2024-02-26T09:00:00;6.55;;;2.88;;
84033;SDS011;74115;55.806;37.754;2024-02-26T09:02:27;3.25;;;1.92;;
84033;SDS011;74115;55.806;37.754;2024-02-26T09:04:53;4.15;;;2.45;;
84033;SDS011;74115;55.806;37.754;2024-02-26T09:07:20;4.82;;;2.10;;
84033;SDS011;74115;55.806;37.754;2024-02-26T09:09:47;4.35;;;1.92;;
84033;SDS011;74115;55.806;37.754;2024-02-26T09:12:12;5.30;;;2.65;;
84033;SDS011;74115;55.806;37.754;2024-02-26T09:14:38;4.40;;;1.80;;
84033;SDS011;74115;55.806;37.754;2024-02-26T09:17:04;3.88;;;2.05;;
84033;SDS011;74115;55.806;37.754;2024-02-26T09:19:31;6.40;;;3.17;;
84033;SDS011;74115;55.806;37.754;2024-02-26T09:21:56;3.63;;;2.33;;
84033;SDS011;74115;55.806;37.754;2024-02-26T09:24:23;5.68;;;2.97;;
84033;SDS011;74115;55.806;37.754;2024-02-26T09:26:50;4.22;;;2.65;;
84033;SDS011;74115;55.806;37.754;2024-02-26T09:29:15;5.32;;;2.67;;
84033;SDS011;74115;55.806;37.754;2024-02-26T09:31:41;5.93;;;2.30;;
84033;SDS011;74115;55.806;37.754;2024-02-26T09:34:07;4.20;;;2.55;;
84033;SDS011;74115;55.806;37.754;2024-02-26T09:36:33;8.30;;;3.63;;
84033;SDS011;74115;55.806;37.754;2024-02-26T09:38:59;5.00;;;2.60;;
84033;SDS011;74115;55.806;37.754;2024-02-26T09:41:26;3.00;;;1.95;;
84033;SDS011;74115;55.806;37.754;2024-02-26T09:46:19;5.85;;;1.85;;
84033;SDS011;74115;55.806;37.754;2024-02-26T09:48:45;6.75;;;2.38;;
84033;SDS011;74115;55.806;37.754;2024-02-26T09:51:12;5.05;;;2.22;;
84033;SDS011;74115;55.806;37.754;2024-02-26T09:53:38;5.72;;;2.35;;
84033;SDS011;74115;55.806;37.754;2024-02-26T09:56:08;6.40;;;3.00;;
84033;SDS011;74115;55.806;37.754;2024-02-26T09:58:33;6.50;;;2.92;;
84033;SDS011;74115;55.806;37.754;2024-02-26T10:01:00;4.78;;;2.10;;
84033;SDS011;74115;55.806;37.754;2024-02-26T10:03:26;4.05;;;2.67;;
84033;SDS011;74115;55.806;37.754;2024-02-26T10:05:57;9.85;;;3.42;;
84033;SDS011;74115;55.806;37.754;2024-02-26T10:08:23;6.47;;;3.17;;
84033;SDS011;74115;55.806;37.754;2024-02-26T10:10:49;6.35;;;3.58;;
84033;SDS011;74115;55.806;37.754;2024-02-26T10:13:15;9.73;;;2.53;;
84033;SDS011;74115;55.806;37.754;2024-02-26T10:15:41;9.25;;;3.08;;
84033;SDS011;74115;55.806;37.754;2024-02-26T10:18:07;4.70;;;2.78;;
84033;SDS011;74115;55.806;37.754;2024-02-26T10:20:33;6.10;;;2.95;;
84033;SDS011;74115;55.806;37.754;2024-02-26T10:23:02;5.78;;;2.17;;
84033;SDS011;74115;55.806;37.754;2024-02-26T10:25:28;5.28;;;1.98;;
84033;SDS011;74115;55.806;37.754;2024-02-26T10:27:54;6.45;;;2.47;;
84033;SDS011;74115;55.806;37.754;2024-02-26T10:30:21;6.28;;;2.30;;
84033;SDS011;74115;55.806;37.754;2024-02-26T10:32:49;6.15;;;2.58;;
84033;SDS011;74115;55.806;37.754;2024-02-26T10:35:15;6.85;;;3.28;;
84033;SDS011;74115;55.806;37.754;2024-02-26T10:37:43;5.07;;;2.40;;
84033;SDS011;74115;55.806;37.754;2024-02-26T10:40:12;5.88;;;2.03;;
84033;SDS011;74115;55.806;37.754;2024-02-26T10:42:39;7.78;;;2.20;;
84033;SDS011;74115;55.806;37.754;2024-02-26T10:45:05;4.13;;;1.95;;
84033;SDS011;74115;55.806;37.754;2024-02-26T10:47:32;7.15;;;2.95;;
84033;SDS011;74115;55.806;37.754;2024-02-26T10:49:59;6.20;;;3.35;;
84033;SDS011;74115;55.806;37.754;2024-02-26T10:52:26;7.85;;;2.63;;
84033;SDS011;74115;55.806;37.754;2024-02-26T10:54:56;17.38;;;3.13;;
84033;SDS011;74115;55.806;37.754;2024-02-26T10:57:23;6.35;;;3.05;;
84033;SDS011;74115;55.806;37.754;2024-02-26T10:59:50;9.82;;;2.55;;
84033;SDS011;74115;55.806;37.754;2024-02-26T11:02:17;7.75;;;3.75;;
84033;SDS011;74115;55.806;37.754;2024-02-26T11:04:43;5.10;;;2.60;;
84033;SDS011;74115;55.806;37.754;2024-02-26T11:07:10;7.93;;;3.40;;
84033;SDS011;74115;55.806;37.754;2024-02-26T11:09:36;10.43;;;4.07;;
84033;SDS011;74115;55.806;37.754;2024-02-26T11:12:08;3.55;;;2.20;;
84033;SDS011;74115;55.806;37.754;2024-02-26T11:14:36;4.53;;;2.15;;
84033;SDS011;74115;55.806;37.754;2024-02-26T11:17:04;8.88;;;3.28;;
84033;SDS011;74115;55.806;37.754;2024-02-26T11:19:30;9.25;;;3.20;;
84033;SDS011;74115;55.806;37.754;2024-02-26T11:22:01;7.00;;;2.97;;
84033;SDS011;74115;55.806;37.754;2024-02-26T11:24:27;5.97;;;2.83;;
84033;SDS011;74115;55.806;37.754;2024-02-26T11:26:54;3.78;;;1.70;;
84033;SDS011;74115;55.806;37.754;2024-02-26T11:29:25;5.50;;;2.92;;
84033;SDS011;74115;55.806;37.754;2024-02-26T11:31:53;8.95;;;3.08;;
84033;SDS011;74115;55.806;37.754;2024-02-26T11:34:18;4.75;;;2.08;;
84033;SDS011;74115;55.806;37.754;2024-02-26T11:36:45;5.05;;;2.63;;
84033;SDS011;74115;55.806;37.754;2024-02-26T11:39:12;5.97;;;2.17;;
84033;SDS011;74115;55.806;37.754;2024-02-26T11:41:38;5.10;;;2.47;;
84033;SDS011;74115;55.806;37.754;2024-02-26T11:44:04;7.75;;;3.45;;
84033;SDS011;74115;55.806;37.754;2024-02-26T11:46:42;4.53;;;2.10;;
84033;SDS011;74115;55.806;37.754;2024-02-26T11:51:53;5.50;;;3.05;;
84033;SDS011;74115;55.806;37.754;2024-02-26T11:54:44;5.35;;;2.65;;
84033;SDS011;74115;55.806;37.754;2024-02-26T11:59:56;8.73;;;3.10;;
84033;SDS011;74115;55.806;37.754;2024-02-26T12:02:39;8.15;;;2.42;;
84033;SDS011;74115;55.806;37.754;2024-02-26T12:05:15;9.13;;;3.35;;
84033;SDS011;74115;55.806;37.754;2024-02-26T12:07:49;6.70;;;2.60;;
84033;SDS011;74115;55.806;37.754;2024-02-26T12:10:30;6.95;;;2.97;;
84033;SDS011;74115;55.806;37.754;2024-02-26T12:13:07;7.18;;;3.45;;
84033;SDS011;74115;55.806;37.754;2024-02-26T12:15:43;7.07;;;2.67;;
84033;SDS011;74115;55.806;37.754;2024-02-26T12:18:10;7.03;;;3.05;;
84033;SDS011;74115;55.806;37.754;2024-02-26T12:20:43;4.43;;;2.30;;
84033;SDS011;74115;55.806;37.754;2024-02-26T12:23:15;5.35;;;2.88;;
84033;SDS011;74115;55.806;37.754;2024-02-26T12:25:44;6.03;;;2.92;;
84033;SDS011;74115;55.806;37.754;2024-02-26T12:28:10;8.77;;;3.33;;
84033;SDS011;74115;55.806;37.754;2024-02-26T12:30:35;4.10;;;2.95;;
84033;SDS011;74115;55.806;37.754;2024-02-26T12:33:01;5.63;;;2.60;;
84033;SDS011;74115;55.806;37.754;2024-02-26T12:35:28;4.47;;;2.78;;
84033;SDS011;74115;55.806;37.754;2024-02-26T12:37:54;6.75;;;3.53;;
84033;SDS011;74115;55.806;37.754;2024-02-26T12:40:20;7.47;;;3.33;;
84033;SDS011;74115;55.806;37.754;2024-02-26T12:42:46;9.25;;;2.72;;
84033;SDS011;74115;55.806;37.754;2024-02-26T12:45:12;6.18;;;3.78;;
84033;SDS011;74115;55.806;37.754;2024-02-26T12:47:41;3.47;;;2.45;;
84033;SDS011;74115;55.806;37.754;2024-02-26T12:50:08;12.38;;;3.72;;
84033;SDS011;74115;55.806;37.754;2024-02-26T12:52:34;11.00;;;3.10;;
84033;SDS011;74115;55.806;37.754;2024-02-26T12:55:02;10.82;;;3.95;;
84033;SDS011;74115;55.806;37.754;2024-02-26T12:57:32;6.47;;;2.13;;
84033;SDS011;74115;55.806;37.754;2024-02-26T12:59:59;7.78;;;3.38;;
84033;SDS011;74115;55.806;37.754;2024-02-26T13:02:25;7.60;;;2.83;;
84033;SDS011;74115;55.806;37.754;2024-02-26T13:04:51;6.35;;;2.78;;
84033;SDS011;74115;55.806;37.754;2024-02-26T13:07:17;5.13;;;3.30;;
84033;SDS011;74115;55.806;37.754;2024-02-26T13:09:43;5.05;;;2.53;;
84033;SDS011;74115;55.806;37.754;2024-02-26T13:12:09;7.68;;;2.42;;
84033;SDS011;74115;55.806;37.754;2024-02-26T13:14:35;5.32;;;3.15;;
84033;SDS011;74115;55.806;37.754;2024-02-26T13:17:01;7.47;;;2.20;;
84033;SDS011;74115;55.806;37.754;2024-02-26T13:19:29;6.03;;;2.50;;
84033;SDS011;74115;55.806;37.754;2024-02-26T13:21:55;6.75;;;3.00;;
84033;SDS011;74115;55.806;37.754;2024-02-26T13:24:21;4.72;;;2.20;;
84033;SDS011;74115;55.806;37.754;2024-02-26T13:26:54;5.47;;;2.65;;
84033;SDS011;74115;55.806;37.754;2024-02-26T13:29:20;3.25;;;2.05;;
84033;SDS011;74115;55.806;37.754;2024-02-26T13:31:56;4.40;;;1.95;;
84033;SDS011;74115;55.806;37.754;2024-02-26T13:34:26;8.88;;;2.75;;
84033;SDS011;74115;55.806;37.754;2024-02-26T13:36:53;4.18;;;2.25;;
84033;SDS011;74115;55.806;37.754;2024-02-26T13:39:26;5.18;;;2.47;;
84033;SDS011;74115;55.806;37.754;2024-02-26T13:41:53;11.50;;;3.22;;
84033;SDS011;74115;55.806;37.754;2024-02-26T13:44:21;4.47;;;2.13;;
84033;SDS011;74115;55.806;37.754;2024-02-26T13:46:47;5.35;;;2.13;;
84033;SDS011;74115;55.806;37.754;2024-02-26T13:49:14;3.38;;;1.77;;
84033;SDS011;74115;55.806;37.754;2024-02-26T13:51:40;3.40;;;2.00;;
84033;SDS011;74115;55.806;37.754;2024-02-26T13:54:09;5.60;;;2.00;;
84033;SDS011;74115;55.806;37.754;2024-02-26T13:56:35;3.72;;;2.13;;
84033;SDS011;74115;55.806;37.754;2024-02-26T13:59:01;14.13;;;2.33;;
84033;SDS011;74115;55.806;37.754;2024-02-26T14:01:27;3.60;;;2.58;;
84033;SDS011;74115;55.806;37.754;2024-02-26T14:03:54;4.80;;;2.90;;
84033;SDS011;74115;55.806;37.754;2024-02-26T14:06:22;5.82;;;2.53;;
84033;SDS011;74115;55.806;37.754;2024-02-26T14:08:48;4.70;;;1.83;;
84033;SDS011;74115;55.806;37.754;2024-02-26T14:11:14;4.47;;;2.83;;
84033;SDS011;74115;55.806;37.754;2024-02-26T14:13:40;10.50;;;3.10;;
84033;SDS011;74115;55.806;37.754;2024-02-26T14:16:06;7.93;;;2.05;;
84033;SDS011;74115;55.806;37.754;2024-02-26T14:18:32;6.25;;;2.10;;
84033;SDS011;74115;55.806;37.754;2024-02-26T14:20:57;6.65;;;1.95;;
84033;SDS011;74115;55.806;37.754;2024-02-26T14:23:23;4.05;;;1.88;;
84033;SDS011;74115;55.806;37.754;2024-02-26T14:25:49;4.43;;;1.70;;
84033;SDS011;74115;55.806;37.754;2024-02-26T14:28:14;6.63;;;1.90;;
84033;SDS011;74115;55.806;37.754;2024-02-26T14:30:40;5.70;;;1.55;;
84033;SDS011;74115;55.806;37.754;2024-02-26T14:33:06;6.88;;;2.50;;
84033;SDS011;74115;55.806;37.754;2024-02-26T14:35:31;5.93;;;2.05;;
84033;SDS011;74115;55.806;37.754;2024-02-26T14:37:57;4.70;;;1.90;;
84033;SDS011;74115;55.806;37.754;2024-02-26T14:40:26;6.93;;;2.28;;
84033;SDS011;74115;55.806;37.754;2024-02-26T14:42:52;4.57;;;2.17;;